Terminal Aerodrome Forecast
Issued by NWS Flagstaff, AZ

Home | Current Version | Previous Version | Text Only | Print | Product List | Glossary On
Versions: 1 2 3 4 5 6 7 8 9 10 11 12 13 14 15 16 17 18 19 20
000
FTUS45 KFGZ 261811 AAA
TAFFLG
TAF AMD
KFLG 261811Z 2618/2718 VRB05KT P6SM SCT080 SCT100
      TEMPO 2618/2619 -TSRA BKN090CB
     FM261900 VRB05KT P6SM SCT070 BKN090
      TEMPO 2619/2623 3SM TSRA BKN060CB OVC080
     FM262300 VRB06KT P6SM BKN150
      TEMPO 2623/2703 -SHRA BKN080
     FM271600 VRB06KT P6SM SCT080=

USA.gov is the U.S. government's official web portal to all federal, state and local government web resources and services.